This is the latest recevied weather packets stored in our database for station/object HA6IFZ-10. If no packets are shown the sender has not sent any weather packets the latest 10 day(s).
| Time | Temp. | Humidity | Pressure | Rain* | Wind** | Luminosity | Snow |
|---|---|---|---|---|---|---|---|
| 1788157996 | 86° F | 29% | 768.5 mmHg | - | - | - | - |
| 1788157096 | 84° F | 30% | 768.4 mmHg | - | - | - | - |
| 1788156195 | 96° F | 21% | 768.4 mmHg | - | - | - | - |
| 1788155295 | 96° F | 22% | 768.4 mmHg | - | - | - | - |
| 1788154394 | 92° F | 25% | 768.4 mmHg | - | - | - | - |
| 1788153494 | 91° F | 26% | 768.4 mmHg | - | - | - | - |
| 1788151697 | 80° F | 35% | 768.4 mmHg | - | - | - | - |
| 1788150797 | 75° F | 42% | 768.3 mmHg | - | - | - | - |
| 1788149896 | 70° F | 50% | 768.3 mmHg | - | - | - | - |
| 1788148996 | 67° F | 55% | 768.3 mmHg | - | - | - | - |
| 1788148096 | 67° F | 55% | 768.4 mmHg | - | - | - | - |
| 1788147196 | 67° F | 56% | 768.4 mmHg | - | - | - | - |
| 1788146296 | 67° F | 56% | 768.3 mmHg | - | - | - | - |
| 1788145396 | 66° F | 57% | 768.3 mmHg | - | - | - | - |
| 1788144496 | 66° F | 59% | 768.4 mmHg | - | - | - | - |
| 1788143596 | 67° F | 56% | 768.4 mmHg | - | - | - | - |
| 1788142696 | 66° F | 57% | 768.6 mmHg | - | - | - | - |
| 1788141796 | 66° F | 57% | 768.5 mmHg | - | - | - | - |
| 1788140895 | 67° F | 53% | 768.5 mmHg | - | - | - | - |
| 1788139995 | 67° F | 53% | 768.5 mmHg | - | - | - | - |
| 1788139095 | 68° F | 51% | 768.4 mmHg | - | - | - | - |
| 1788138195 | 68° F | 50% | 768.5 mmHg | - | - | - | - |
| 1788137295 | 68° F | 49% | 768.4 mmHg | - | - | - | - |
| 1788136395 | 69° F | 48% | 768.4 mmHg | - | - | - | - |
| 1788135494 | 69° F | 48% | 768.5 mmHg | - | - | - | - |
* Rain since midnight (hover to see other rain measurements)
** Current wind speed in m/s (hover to see current wind gust speed)